Back to Top

Language: 

My Weather Underground Personal Weather Station Historical Data with Graphs...

Delerius Weather Station Historical Data
Daily Summary for January 2, 2018 Units:  Metric    English   Both
« Previous Day
Next Day »
Daily Weekly Monthly Yearly Custom
  High: Low: Average:
Temperature: 9.7 °C 4.2 °C 6.3 °C
Dew Point: 8.2 °C 1.5 °C 4.4 °C
Humidity: 95 % 74 % 87 %
Wind Speed: 46.7 km/h 0 km/h 18 km/h
Wind Gust: 67.6 km/h - -
Wind:- - SW
Pressure: 1006 hPa 980.6 hPa -
Precipitation: 4.06 mm    
Historical Graphs
 
 
Tabular Data for January 2, 2018
Time Temperature Dew Point Pressure Wind Wind Speed Wind Gust Humidity Rainfall Rate (Hourly) solar Conditions
00:01 5.9 °C 3.6 °C 1005 hPa WNW 22.5 km/h 38.6 km/h 85 % 0 mm 0 W/m2
00:02 5.9 °C 3.6 °C 1005 hPa WNW 20.9 km/h 35.4 km/h 85 % 0 mm 0 W/m2
00:07 5.9 °C 3.6 °C 1005 hPa WNW 20.9 km/h 33.8 km/h 85 % 0 mm 0 W/m2
00:08 5.9 °C 3.6 °C 1005.3 hPa WNW 20.9 km/h 32.2 km/h 85 % 0 mm 0 W/m2
00:13 5.9 °C 3.6 °C 1005.3 hPa WNW 19.3 km/h 30.6 km/h 85 % 0 mm 0 W/m2
00:17 5.9 °C 3.6 °C 1005.3 hPa WNW 19.3 km/h 29 km/h 85 % 0 mm 0 W/m2
00:20 5.9 °C 3.6 °C 1005.3 hPa WNW 14.5 km/h 24.1 km/h 85 % 0 mm 0 W/m2
00:23 5.9 °C 3.6 °C 1005.3 hPa WNW 16.1 km/h 25.7 km/h 85 % 0 mm 0 W/m2
00:27 5.9 °C 3.6 °C 1005.3 hPa West 17.7 km/h 25.7 km/h 85 % 0 mm 0 W/m2
00:32 6 °C 3.7 °C 1005.3 hPa WNW 25.7 km/h 35.4 km/h 85 % 0 mm 0 W/m2
00:33 6.1 °C 3.8 °C 1005.3 hPa WNW 24.1 km/h 35.4 km/h 85 % 0 mm 0 W/m2
00:38 6.1 °C 3.8 °C 1005.3 hPa WNW 20.9 km/h 33.8 km/h 85 % 0 mm 0 W/m2
00:43 6.1 °C 3.6 °C 1005.3 hPa WNW 20.9 km/h 37 km/h 84 % 0 mm 0 W/m2
00:47 6.1 °C 3.8 °C 1005.3 hPa West 25.7 km/h 37 km/h 85 % 0 mm 0 W/m2
00:52 6.1 °C 3.8 °C 1005.6 hPa WNW 22.5 km/h 37 km/h 85 % 0 mm 0 W/m2
00:55 6.1 °C 3.8 °C 1005.3 hPa West 24.1 km/h 37 km/h 85 % 0 mm 0 W/m2
01:00 6.1 °C 3.8 °C 1005.6 hPa WNW 25.7 km/h 37 km/h 85 % 0 mm 0 W/m2
01:02 6.1 °C 3.8 °C 1005.6 hPa WNW 22.5 km/h 33.8 km/h 85 % 0 mm 0 W/m2
01:03 6.1 °C 3.8 °C 1005.6 hPa WNW 24.1 km/h 41.8 km/h 85 % 0 mm 0 W/m2
01:08 6 °C 3.7 °C 1005.6 hPa WNW 20.9 km/h 32.2 km/h 85 % 0 mm 0 W/m2
01:13 5.9 °C 3.6 °C 1005.6 hPa WNW 22.5 km/h 35.4 km/h 85 % 0 mm 0 W/m2
01:14 5.9 °C 3.6 °C 1005.6 hPa WNW 22.5 km/h 35.4 km/h 85 % 0 mm 0 W/m2
01:19 5.9 °C 3.6 °C 1005.6 hPa WNW 24.1 km/h 33.8 km/h 85 % 0 mm 0 W/m2
01:24 5.9 °C 3.6 °C 1005.6 hPa WNW 25.7 km/h 35.4 km/h 85 % 0 mm 0 W/m2
01:27 5.9 °C 3.6 °C 1005.6 hPa WNW 24.1 km/h 33.8 km/h 85 % 0 mm 0 W/m2
01:29 5.8 °C 3.4 °C 1005.6 hPa WNW 29 km/h 43.5 km/h 85 % 0 mm 0 W/m2
01:32 5.9 °C 3.6 °C 1005.6 hPa WNW 25.7 km/h 40.2 km/h 85 % 0 mm 0 W/m2
01:37 5.9 °C 3.6 °C 1005.6 hPa WNW 25.7 km/h 35.4 km/h 85 % 0 mm 0 W/m2
01:42 5.9 °C 3.6 °C 1005.6 hPa WNW 29 km/h 41.8 km/h 85 % 0 mm 0 W/m2
01:45 5.9 °C 3.6 °C 1005.3 hPa WNW 27.4 km/h 40.2 km/h 85 % 0 mm 0 W/m2
01:49 5.9 °C 3.6 °C 1005.6 hPa WNW 25.7 km/h 41.8 km/h 85 % 0 mm 0 W/m2
01:52 5.8 °C 3.6 °C 1005.6 hPa WNW 27.4 km/h 40.2 km/h 86 % 0 mm 0 W/m2
01:57 5.8 °C 3.6 °C 1005.6 hPa WNW 27.4 km/h 46.7 km/h 86 % 0 mm 0 W/m2
01:58 5.8 °C 3.6 °C 1005.6 hPa WNW 27.4 km/h 46.7 km/h 86 % 0 mm 0 W/m2
02:02 5.8 °C 3.6 °C 1005.6 hPa WNW 25.7 km/h 41.8 km/h 86 % 0 mm 0 W/m2
02:03 5.8 °C 3.6 °C 1005.6 hPa WNW 25.7 km/h 41.8 km/h 86 % 0 mm 0 W/m2
02:08 5.8 °C 3.6 °C 1005.6 hPa WNW 27.4 km/h 41.8 km/h 86 % 0 mm 0 W/m2
02:09 5.8 °C 3.6 °C 1005.6 hPa WNW 25.7 km/h 41.8 km/h 86 % 0 mm 0 W/m2
02:13 5.8 °C 3.6 °C 1005.6 hPa WNW 24.1 km/h 35.4 km/h 86 % 0 mm 0 W/m2
02:14 5.8 °C 3.6 °C 1005.6 hPa WNW 20.9 km/h 35.4 km/h 86 % 0 mm 0 W/m2
02:19 5.8 °C 3.6 °C 1005.6 hPa WNW 24.1 km/h 40.2 km/h 86 % 0 mm 0 W/m2
02:21 5.8 °C 3.6 °C 1005.6 hPa WNW 22.5 km/h 32.2 km/h 86 % 0 mm 0 W/m2
02:26 5.7 °C 3.6 °C 1006 hPa WNW 20.9 km/h 32.2 km/h 86 % 0 mm 0 W/m2
02:31 5.7 °C 3.7 °C 1006 hPa WNW 19.3 km/h 25.7 km/h 87 % 0 mm 0 W/m2
02:32 5.7 °C 3.7 °C 1006 hPa WNW 19.3 km/h 32.2 km/h 87 % 0 mm 0 W/m2
02:33 5.7 °C 3.7 °C 1005.6 hPa WNW 19.3 km/h 32.2 km/h 87 % 0 mm 0 W/m2
02:38 5.7 °C 3.7 °C 1005.6 hPa WNW 20.9 km/h 35.4 km/h 87 % 0 mm 0 W/m2
02:43 5.7 °C 3.7 °C 1005.6 hPa WNW 22.5 km/h 38.6 km/h 87 % 0 mm 0 W/m2
02:46 5.7 °C 3.7 °C 1005.6 hPa WNW 25.7 km/h 41.8 km/h 87 % 0 mm 0 W/m2
02:47 5.7 °C 3.7 °C 1005.6 hPa WNW 27.4 km/h 41.8 km/h 87 % 0 mm 0 W/m2
02:52 5.7 °C 3.7 °C 1005.6 hPa WNW 24.1 km/h 40.2 km/h 87 % 0 mm 0 W/m2
02:57 5.7 °C 3.7 °C 1006 hPa WNW 24.1 km/h 45.1 km/h 87 % 0 mm 0 W/m2
03:02 5.7 °C 3.6 °C 1006 hPa WNW 22.5 km/h 33.8 km/h 86 % 0 mm 0 W/m2
03:07 5.7 °C 3.6 °C 1006 hPa WNW 24.1 km/h 35.4 km/h 86 % 0 mm 0 W/m2
03:09 5.7 °C 3.6 °C 1006 hPa WNW 22.5 km/h 35.4 km/h 86 % 0 mm 0 W/m2
03:14 5.7 °C 3.6 °C 1006 hPa WNW 25.7 km/h 35.4 km/h 86 % 0 mm 0 W/m2
03:15 5.7 °C 3.6 °C 1006 hPa WNW 27.4 km/h 40.2 km/h 86 % 0 mm 0 W/m2
03:20 5.7 °C 3.6 °C 1005.6 hPa WNW 25.7 km/h 38.6 km/h 86 % 0 mm 0 W/m2
03:22 5.7 °C 3.6 °C 1005.6 hPa WNW 24.1 km/h 38.6 km/h 86 % 0 mm 0 W/m2
03:27 5.7 °C 3.6 °C 1005.6 hPa WNW 25.7 km/h 38.6 km/h 86 % 0 mm 0 W/m2
03:29 5.7 °C 3.6 °C 1005.6 hPa WNW 22.5 km/h 35.4 km/h 86 % 0 mm 0 W/m2
03:34 5.7 °C 3.6 °C 1005.6 hPa WNW 24.1 km/h 40.2 km/h 86 % 0 mm 0 W/m2
03:39 5.7 °C 3.6 °C 1005.6 hPa WNW 27.4 km/h 38.6 km/h 86 % 0 mm 0 W/m2
03:44 5.7 °C 3.4 °C 1005.3 hPa WNW 22.5 km/h 35.4 km/h 85 % 0 mm 0 W/m2
03:45 5.7 °C 3.6 °C 1005.3 hPa WNW 20.9 km/h 29 km/h 86 % 0 mm 0 W/m2
03:50 5.7 °C 3.4 °C 1005.6 hPa WNW 24.1 km/h 40.2 km/h 85 % 0 mm 0 W/m2
03:51 5.7 °C 3.4 °C 1005.6 hPa WNW 24.1 km/h 40.2 km/h 85 % 0 mm 0 W/m2
03:55 5.7 °C 3.4 °C 1005.6 hPa WNW 19.3 km/h 32.2 km/h 85 % 0 mm 0 W/m2
03:57 5.7 °C 3.4 °C 1005.6 hPa WNW 20.9 km/h 33.8 km/h 85 % 0 mm 0 W/m2
04:02 5.7 °C 3.4 °C 1005.6 hPa West 19.3 km/h 30.6 km/h 85 % 0 mm 0 W/m2
04:03 5.7 °C 3.4 °C 1005.6 hPa West 19.3 km/h 30.6 km/h 85 % 0 mm 0 W/m2
04:08 5.6 °C 3.1 °C 1005.6 hPa WNW 17.7 km/h 29 km/h 84 % 0 mm 0 W/m2
04:09 5.6 °C 3.1 °C 1005.6 hPa West 17.7 km/h 25.7 km/h 84 % 0 mm 0 W/m2
04:10 5.6 °C 3.1 °C 1005.6 hPa West 16.1 km/h 22.5 km/h 84 % 0 mm 0 W/m2
04:15 5.5 °C 3.2 °C 1005.6 hPa West 20.9 km/h 30.6 km/h 85 % 0 mm 0 W/m2
04:17 5.5 °C 3.2 °C 1006 hPa West 25.7 km/h 38.6 km/h 85 % 0 mm 0 W/m2
04:21 5.5 °C 3.2 °C 1006 hPa West 22.5 km/h 37 km/h 85 % 0 mm 0 W/m2
04:26 5.4 °C 3.1 °C 1006 hPa West 20.9 km/h 32.2 km/h 85 % 0 mm 0 W/m2
04:29 5.4 °C 3.1 °C 1006 hPa West 22.5 km/h 33.8 km/h 85 % 0 mm 0 W/m2
04:35 5.4 °C 3.1 °C 1006 hPa West 29 km/h 43.5 km/h 85 % 0 mm 0 W/m2
04:40 5.3 °C 3.2 °C 1006 hPa West 25.7 km/h 35.4 km/h 86 % 0 mm 0 W/m2
04:41 5.3 °C 3.2 °C 1006 hPa West 24.1 km/h 32.2 km/h 86 % 0 mm 0 W/m2
04:46 5.3 °C 3.2 °C 1006 hPa West 20.9 km/h 32.2 km/h 86 % 0 mm 0 W/m2
04:51 5.2 °C 3.1 °C 1006 hPa West 22.5 km/h 37 km/h 86 % 0 mm 0 W/m2
04:52 5.2 °C 3.1 °C 1006 hPa West 22.5 km/h 37 km/h 86 % 0 mm 0 W/m2
04:57 5.1 °C 3.1 °C 1006 hPa West 19.3 km/h 30.6 km/h 87 % 0 mm 0 W/m2
04:58 5.1 °C 3.1 °C 1006 hPa West 20.9 km/h 30.6 km/h 87 % 0 mm 0 W/m2
05:03 5 °C 3 °C 1005.6 hPa West 19.3 km/h 25.7 km/h 87 % 0 mm 0 W/m2
05:04 5 °C 3 °C 1005.6 hPa West 19.3 km/h 29 km/h 87 % 0 mm 0 W/m2
05:05 5 °C 3 °C 1005.6 hPa West 20.9 km/h 30.6 km/h 87 % 0 mm 0 W/m2
05:10 4.8 °C 2.8 °C 1005.6 hPa West 20.9 km/h 29 km/h 87 % 0 mm 0 W/m2
05:11 4.8 °C 2.8 °C 1005.6 hPa West 19.3 km/h 29 km/h 87 % 0 mm 0 W/m2
05:16 4.8 °C 3 °C 1006 hPa West 20.9 km/h 35.4 km/h 88 % 0 mm 0 W/m2
05:17 4.8 °C 2.8 °C 1006 hPa West 19.3 km/h 25.7 km/h 87 % 0 mm 0 W/m2
05:22 4.7 °C 2.7 °C 1006 hPa West 22.5 km/h 35.4 km/h 87 % 0 mm 0 W/m2
05:27 4.8 °C 2.8 °C 1006 hPa West 19.3 km/h 33.8 km/h 87 % 0 mm 0 W/m2
05:30 4.7 °C 2.7 °C 1006 hPa West 19.3 km/h 30.6 km/h 87 % 0 mm 0 W/m2
05:31 4.7 °C 2.7 °C 1006 hPa West 17.7 km/h 30.6 km/h 87 % 0 mm 0 W/m2
05:36 4.7 °C 2.7 °C 1006 hPa West 19.3 km/h 30.6 km/h 87 % 0 mm 0 W/m2
05:38 4.7 °C 2.7 °C 1006 hPa West 17.7 km/h 29 km/h 87 % 0 mm 0 W/m2
05:47 4.6 °C 2.6 °C 1006 hPa West 24.1 km/h 35.4 km/h 87 % 0 mm 0 W/m2
05:50 4.6 °C 2.6 °C 1006 hPa West 17.7 km/h 30.6 km/h 87 % 0 mm 0 W/m2
05:52 4.6 °C 2.6 °C 1006 hPa WSW 17.7 km/h 29 km/h 87 % 0 mm 0 W/m2
05:57 4.6 °C 2.6 °C 1006 hPa West 16.1 km/h 29 km/h 87 % 0 mm 0 W/m2
06:01 4.6 °C 2.6 °C 1006 hPa WSW 19.3 km/h 35.4 km/h 87 % 0 mm 0 W/m2
06:06 4.6 °C 2.6 °C 1006 hPa West 19.3 km/h 32.2 km/h 87 % 0 mm 0 W/m2
06:08 4.6 °C 2.6 °C 1006 hPa West 17.7 km/h 32.2 km/h 87 % 0 mm 0 W/m2
06:10 4.5 °C 2.3 °C 1006 hPa West 12.9 km/h 20.9 km/h 86 % 0 mm 0 W/m2
06:13 4.4 °C 2.3 °C 1006 hPa West 16.1 km/h 30.6 km/h 86 % 0 mm 0 W/m2
06:18 4.4 °C 2.3 °C 1006 hPa West 16.1 km/h 24.1 km/h 86 % 0 mm 0 W/m2
06:23 4.4 °C 2.3 °C 1006 hPa West 14.5 km/h 24.1 km/h 86 % 0 mm 0 W/m2
06:28 4.4 °C 2.3 °C 1006 hPa West 11.3 km/h 17.7 km/h 86 % 0 mm 0 W/m2
06:29 4.4 °C 2.3 °C 1005.6 hPa West 11.3 km/h 17.7 km/h 86 % 0 mm 0 W/m2
06:34 4.4 °C 2.3 °C 1005.6 hPa West 12.9 km/h 19.3 km/h 86 % 0 mm 0 W/m2
06:35 4.4 °C 2.3 °C 1005.6 hPa WNW 12.9 km/h 19.3 km/h 86 % 0 mm 0 W/m2
06:40 4.3 °C 2.2 °C 1005.6 hPa WNW 12.9 km/h 17.7 km/h 86 % 0 mm 0 W/m2
06:45 4.2 °C 2.1 °C 1005.6 hPa West 12.9 km/h 17.7 km/h 86 % 0 mm 0 W/m2
06:46 4.2 °C 2.1 °C 1005.6 hPa West 12.9 km/h 17.7 km/h 86 % 0 mm 0 W/m2
06:51 4.2 °C 2.1 °C 1005.6 hPa WNW 12.9 km/h 19.3 km/h 86 % 0 mm 0 W/m2
06:53 4.2 °C 2.1 °C 1005.6 hPa West 12.9 km/h 17.7 km/h 86 % 0 mm 0 W/m2
06:56 4.2 °C 2.1 °C 1005.6 hPa West 12.9 km/h 19.3 km/h 86 % 0 mm 0 W/m2
06:58 4.2 °C 2.1 °C 1005.6 hPa West 11.3 km/h 17.7 km/h 86 % 0 mm 0 W/m2
07:03 4.2 °C 2.1 °C 1005.6 hPa SW 1.6 km/h 6.4 km/h 86 % 0 mm 0 W/m2
07:06 4.2 °C 2.1 °C 1006 hPa WSW 1.6 km/h 11.3 km/h 86 % 0 mm 0 W/m2
07:11 4.2 °C 2.1 °C 1006 hPa WSW 8 km/h 19.3 km/h 86 % 0 mm 0 W/m2
07:15 4.3 °C 2 °C 1005.6 hPa SW 4.8 km/h 12.9 km/h 85 % 0 mm 0 W/m2
07:16 4.3 °C 2 °C 1005.6 hPa SW 3.2 km/h 9.7 km/h 85 % 0 mm 0 W/m2
07:21 4.3 °C 2 °C 1005.6 hPa WSW 6.4 km/h 12.9 km/h 85 % 0 mm 0 W/m2
07:26 4.4 °C 2.1 °C 1006 hPa SW 1.6 km/h 6.4 km/h 85 % 0 mm 0 W/m2
07:28 4.4 °C 2.1 °C 1006 hPa SW 1.6 km/h 3.2 km/h 85 % 0 mm 0 W/m2
07:31 4.3 °C 2 °C 1005.6 hPa South 1.6 km/h 6.4 km/h 85 % 0 mm 0 W/m2
07:33 4.3 °C 2 °C 1006 hPa SSE 1.6 km/h 6.4 km/h 85 % 0 mm 0 W/m2
07:38 4.3 °C 1.8 °C 1006 hPa SSE 1.6 km/h 3.2 km/h 84 % 0 mm 0 W/m2
07:39 4.3 °C 1.8 °C 1006 hPa SSE 1.6 km/h 3.2 km/h 84 % 0 mm 0 W/m2
07:44 4.2 °C 1.9 °C 1005.6 hPa South 6.4 km/h 12.9 km/h 85 % 0 mm 0 W/m2
07:46 4.2 °C 1.9 °C 1005.6 hPa South 8 km/h 12.9 km/h 85 % 0 mm 0 W/m2
07:51 4.3 °C 1.8 °C 1005.3 hPa South 6.4 km/h 9.7 km/h 84 % 0 mm 0 W/m2
07:52 4.3 °C 1.8 °C 1005.6 hPa South 4.8 km/h 9.7 km/h 84 % 0 mm 0 W/m2
07:57 4.3 °C 1.8 °C 1005.6 hPa South 8 km/h 11.3 km/h 84 % 0 mm 0 W/m2
08:02 4.4 °C 1.9 °C 1006 hPa South 6.4 km/h 12.9 km/h 84 % 0 mm 0 W/m2
08:04 4.4 °C 1.8 °C 1006 hPa South 6.4 km/h 14.5 km/h 83 % 0 mm 0 W/m2
08:09 4.4 °C 1.8 °C 1006 hPa SSE 6.4 km/h 9.7 km/h 83 % 0 mm 0 W/m2
08:10 4.3 °C 1.7 °C 1006 hPa SSE 6.4 km/h 11.3 km/h 83 % 0 mm 0 W/m2
08:15 4.3 °C 1.7 °C 1005.6 hPa SSE 4.8 km/h 9.7 km/h 83 % 0 mm 0 W/m2
08:17 4.3 °C 1.7 °C 1005.6 hPa SSE 6.4 km/h 9.7 km/h 83 % 0 mm 0 W/m2
08:19 4.3 °C 1.7 °C 1005.6 hPa SSE 3.2 km/h 6.4 km/h 83 % 0 mm 0 W/m2
08:23 4.2 °C 1.6 °C 1005.6 hPa South 1.6 km/h 4.8 km/h 83 % 0 mm 0 W/m2
08:28 4.2 °C 1.7 °C 1006 hPa SSW 6.4 km/h 11.3 km/h 84 % 0 mm 0 W/m2
08:29 4.2 °C 1.7 °C 1006 hPa SSW 6.4 km/h 11.3 km/h 84 % 0 mm 0 W/m2
08:34 4.2 °C 1.7 °C 1006 hPa SSW 4.8 km/h 8 km/h 84 % 0 mm 0 W/m2
08:39 4.2 °C 1.7 °C 1006 hPa SSW 1.6 km/h 3.2 km/h 84 % 0 mm 0 W/m2
08:40 4.2 °C 1.7 °C 1006 hPa SSW 1.6 km/h 6.4 km/h 84 % 0 mm 0 W/m2
08:45 4.2 °C 1.6 °C 1006 hPa SSW 4.8 km/h 9.7 km/h 83 % 0 mm 0 W/m2
08:47 4.3 °C 1.7 °C 1006 hPa SSW 8 km/h 12.9 km/h 83 % 0 mm 0 W/m2
08:51 4.3 °C 1.7 °C 1005.6 hPa SW 4.8 km/h 9.7 km/h 83 % 0 mm 0 W/m2
08:56 4.4 °C 1.6 °C 1005.6 hPa Calm   6.4 km/h 82 % 0 mm 0 W/m2
08:58 4.5 °C 1.7 °C 1005.6 hPa Calm   3.2 km/h 82 % 0 mm 0 W/m2
09:04 4.5 °C 1.5 °C 1005.3 hPa East 4.8 km/h 8 km/h 81 % 0 mm 0 W/m2
09:09 4.6 °C 1.6 °C 1005 hPa ESE 3.2 km/h 6.4 km/h 81 % 0 mm 5 W/m2
09:11 4.6 °C 1.6 °C 1005 hPa SE 1.6 km/h 4.8 km/h 81 % 0 mm 5 W/m2
09:12 4.6 °C 1.6 °C 1005 hPa SE 1.6 km/h 4.8 km/h 81 % 0 mm 5 W/m2
09:17 4.6 °C 1.8 °C 1004.6 hPa Calm   3.2 km/h 82 % 0 mm 7 W/m2
09:18 4.6 °C 1.8 °C 1004.6 hPa Calm   3.2 km/h 82 % 0 mm 7 W/m2
09:23 4.6 °C 1.8 °C 1004.6 hPa Calm     82 % 0 mm 11 W/m2
09:25 4.6 °C 1.8 °C 1004.6 hPa Calm   1.6 km/h 82 % 0 mm 11 W/m2
09:30 4.6 °C 1.9 °C 1004.6 hPa South 4.8 km/h 12.9 km/h 83 % 0 mm 11 W/m2
09:31 4.6 °C 1.9 °C 1004.6 hPa South 4.8 km/h 9.7 km/h 83 % 0 mm 11 W/m2
09:36 4.7 °C 2.1 °C 1004.3 hPa South 3.2 km/h 8 km/h 83 % 0 mm 11 W/m2
09:38 4.7 °C 2.1 °C 1004.3 hPa South 3.2 km/h 8 km/h 83 % 0 mm 11 W/m2
09:43 4.7 °C 2.1 °C 1004.3 hPa SSW 3.2 km/h 11.3 km/h 83 % 0 mm 9 W/m2
09:44 4.8 °C 2.2 °C 1004.3 hPa SSW 3.2 km/h 11.3 km/h 83 % 0 mm 9 W/m2
09:49 4.8 °C 2 °C 1004.3 hPa SSW 14.5 km/h 20.9 km/h 82 % 0 mm 9 W/m2
09:51 4.9 °C 2.1 °C 1003.9 hPa SSW 9.7 km/h 17.7 km/h 82 % 0 mm 9 W/m2
09:56 4.9 °C 2.1 °C 1004.3 hPa SSW 9.7 km/h 14.5 km/h 82 % 0 mm 7 W/m2
10:03 5 °C 2.2 °C 1003.9 hPa SSW 11.3 km/h 20.9 km/h 82 % 0 mm 12 W/m2
10:04 5 °C 2.2 °C 1003.9 hPa SSW 14.5 km/h 24.1 km/h 82 % 0 mm 14 W/m2
10:11 5 °C 2.2 °C 1003.9 hPa SSW 14.5 km/h 22.5 km/h 82 % 0 mm 14 W/m2
10:13 5 °C 2.2 °C 1003.9 hPa SSW 17.7 km/h 32.2 km/h 82 % 0 mm 16 W/m2
10:18 5 °C 2.2 °C 1003.6 hPa South 9.7 km/h 12.9 km/h 82 % 0 mm 18 W/m2
10:20 4.9 °C 2.1 °C 1003.6 hPa South 9.7 km/h 12.9 km/h 82 % 0 mm 19 W/m2
10:21 4.9 °C 2.1 °C 1003.6 hPa SSE 8 km/h 16.1 km/h 82 % 0 mm 19 W/m2
10:26 4.9 °C 2.1 °C 1003.6 hPa SSE 9.7 km/h 16.1 km/h 82 % 0 mm 16 W/m2
10:31 4.9 °C 2.3 °C 1003.9 hPa South 11.3 km/h 16.1 km/h 83 % 0 mm 14 W/m2
10:35 4.9 °C 2.4 °C 1003.9 hPa South 8 km/h 14.5 km/h 84 % 0 mm 12 W/m2
10:39 4.9 °C 2.4 °C 1003.6 hPa SSE 8 km/h 14.5 km/h 84 % 0 mm 16 W/m2
10:42 4.9 °C 2.6 °C 1003.6 hPa SSE 9.7 km/h 12.9 km/h 85 % 0 mm 18 W/m2
10:46 4.9 °C 2.8 °C 1003.6 hPa SSE 9.7 km/h 14.5 km/h 86 % 0.25 mm 30 W/m2
10:48 4.9 °C 2.8 °C 1003.3 hPa SSE 9.7 km/h 17.7 km/h 86 % 0.25 mm 33 W/m2
10:52 4.9 °C 2.9 °C 1002.9 hPa SSE 11.3 km/h 19.3 km/h 87 % 0.25 mm 35 W/m2
10:58 4.8 °C 3 °C 1002.6 hPa South 12.9 km/h 19.3 km/h 88 % 0.25 mm 28 W/m2
11:03 4.8 °C 3.2 °C 1002.3 hPa South 12.9 km/h 19.3 km/h 89 % 0.51 mm 30 W/m2
11:04 4.8 °C 3.2 °C 1002.3 hPa SSE 12.9 km/h 19.3 km/h 89 % 0.51 mm 30 W/m2
11:09 4.8 °C 3.2 °C 1002.3 hPa South 14.5 km/h 24.1 km/h 89 % 0.51 mm 39 W/m2
11:11 4.8 °C 3.2 °C 1002.3 hPa South 14.5 km/h 22.5 km/h 89 % 0.51 mm 39 W/m2
11:16 4.7 °C 3.2 °C 1001.9 hPa South 14.5 km/h 29 km/h 90 % 0.51 mm 35 W/m2
11:17 4.7 °C 3.2 °C 1001.9 hPa South 14.5 km/h 22.5 km/h 90 % 0.51 mm 33 W/m2
11:22 4.7 °C 3.2 °C 1001.6 hPa SSE 14.5 km/h 22.5 km/h 90 % 0.51 mm 40 W/m2
11:27 4.6 °C 3.3 °C 1001.2 hPa SE 14.5 km/h 22.5 km/h 91 % 0.51 mm 37 W/m2
11:32 4.6 °C 3.3 °C 1001.2 hPa SE 14.5 km/h 22.5 km/h 91 % 0.51 mm 42 W/m2
11:34 4.6 °C 3.3 °C 1000.9 hPa SE 16.1 km/h 24.1 km/h 91 % 0.51 mm 44 W/m2
11:37 4.6 °C 3.4 °C 1000.9 hPa SSE 9.7 km/h 17.7 km/h 92 % 0.51 mm 44 W/m2
11:42 4.6 °C 3.4 °C 1000.9 hPa SSE 14.5 km/h 19.3 km/h 92 % 0.51 mm 42 W/m2
11:43 4.7 °C 3.5 °C 1000.9 hPa SSE 12.9 km/h 19.3 km/h 92 % 0.51 mm 42 W/m2
11:45 4.7 °C 3.5 °C 1000.6 hPa SSE 9.7 km/h 16.1 km/h 92 % 0.51 mm 47 W/m2
11:46 4.7 °C 3.5 °C 1000.6 hPa SSE 12.9 km/h 22.5 km/h 92 % 0.51 mm 58 W/m2
11:51 4.7 °C 3.7 °C 1000.2 hPa SSE 11.3 km/h 22.5 km/h 93 % 0.51 mm 70 W/m2
11:56 4.7 °C 3.7 °C 1000.2 hPa South 12.9 km/h 22.5 km/h 93 % 0.51 mm 42 W/m2
11:57 4.7 °C 3.7 °C 1000.2 hPa South 11.3 km/h 20.9 km/h 93 % 0.51 mm 46 W/m2
12:00 4.7 °C 3.7 °C 999.9 hPa SSE 12.9 km/h 24.1 km/h 93 % 0.51 mm 67 W/m2
12:03 4.7 °C 3.7 °C 999.9 hPa SSE 17.7 km/h 25.7 km/h 93 % 0.51 mm 125 W/m2
12:08 4.8 °C 3.9 °C 999.5 hPa South 9.7 km/h 19.3 km/h 94 % 0.51 mm 151 W/m2
12:13 4.8 °C 3.9 °C 999.5 hPa South 14.5 km/h 22.5 km/h 94 % 0.51 mm 51 W/m2
12:14 4.8 °C 3.9 °C 999.5 hPa South 14.5 km/h 29 km/h 94 % 0.25 mm 49 W/m2
12:19 4.9 °C 4 °C 999.2 hPa South 16.1 km/h 30.6 km/h 94 % 0.25 mm 160 W/m2
12:21 4.9 °C 4 °C 999.2 hPa South 17.7 km/h 33.8 km/h 94 % 0.51 mm 141 W/m2
12:26 4.9 °C 4 °C 999.2 hPa South 16.1 km/h 33.8 km/h 94 % 0.51 mm 88 W/m2
12:29 5 °C 4.1 °C 998.9 hPa South 17.7 km/h 25.7 km/h 94 % 0.51 mm 60 W/m2
12:35 5 °C 4.1 °C 998.9 hPa SSW 17.7 km/h 35.4 km/h 94 % 0.51 mm 49 W/m2
12:37 5.1 °C 4.2 °C 998.9 hPa SSW 19.3 km/h 33.8 km/h 94 % 0.51 mm 60 W/m2
12:39 5.1 °C 4.2 °C 998.9 hPa South 14.5 km/h 24.1 km/h 94 % 0.51 mm 54 W/m2
12:43 5.1 °C 4.2 °C 998.9 hPa South 19.3 km/h 35.4 km/h 94 % 0.51 mm 100 W/m2
12:48 5.1 °C 4.4 °C 998.5 hPa South 16.1 km/h 29 km/h 95 % 0.51 mm 90 W/m2
12:49 5.1 °C 4.4 °C 998.5 hPa SSW 17.7 km/h 29 km/h 95 % 0.51 mm 86 W/m2
12:50 5.2 °C 4.4 °C 998.5 hPa South 19.3 km/h 30.6 km/h 95 % 0.51 mm 81 W/m2
12:55 5.2 °C 4.4 °C 998.2 hPa South 17.7 km/h 29 km/h 95 % 0.51 mm 35 W/m2
12:56 5.2 °C 4.4 °C 998.5 hPa SSW 19.3 km/h 32.2 km/h 95 % 0.51 mm 30 W/m2
13:01 5.2 °C 4.4 °C 998.2 hPa SSW 19.3 km/h 33.8 km/h 95 % 0.76 mm 77 W/m2
13:03 5.3 °C 4.6 °C 998.2 hPa SSW 16.1 km/h 29 km/h 95 % 0.76 mm 91 W/m2
13:05 5.3 °C 4.6 °C 998.2 hPa SSW 16.1 km/h 30.6 km/h 95 % 0.76 mm 86 W/m2
13:08 5.3 °C 4.6 °C 998.2 hPa SSW 20.9 km/h 32.2 km/h 95 % 0.76 mm 21 W/m2
13:10 5.4 °C 4.7 °C 998.2 hPa SSW 16.1 km/h 22.5 km/h 95 % 0.76 mm 26 W/m2
13:15 5.4 °C 4.7 °C 998.5 hPa SSW 16.1 km/h 22.5 km/h 95 % 0.76 mm 19 W/m2
13:17 5.4 °C 4.7 °C 998.2 hPa SW 12.9 km/h 19.3 km/h 95 % 0.76 mm 25 W/m2
13:20 5.4 °C 4.7 °C 998.5 hPa SW 12.9 km/h 16.1 km/h 95 % 0.76 mm 28 W/m2
13:24 5.5 °C 4.8 °C 998.2 hPa SW 11.3 km/h 20.9 km/h 95 % 0.51 mm 47 W/m2
13:25 5.5 °C 4.8 °C 998.2 hPa SW 12.9 km/h 20.9 km/h 95 % 0.51 mm 53 W/m2
13:30 5.6 °C 4.9 °C 998.2 hPa SW 14.5 km/h 20.9 km/h 95 % 0.51 mm 46 W/m2
13:34 5.7 °C 4.9 °C 998.2 hPa SW 17.7 km/h 33.8 km/h 95 % 0.51 mm 42 W/m2
13:37 5.7 °C 4.9 °C 998.2 hPa SW 17.7 km/h 25.7 km/h 95 % 0.51 mm 54 W/m2
13:39 5.8 °C 5.1 °C 998.2 hPa WSW 14.5 km/h 20.9 km/h 95 % 0.51 mm 37 W/m2
13:44 5.8 °C 5.1 °C 998.2 hPa SW 16.1 km/h 22.5 km/h 95 % 0.51 mm 26 W/m2
13:46 5.9 °C 5.2 °C 998.2 hPa SW 16.1 km/h 25.7 km/h 95 % 0.25 mm 25 W/m2
13:50 5.9 °C 5.2 °C 997.9 hPa SW 20.9 km/h 30.6 km/h 95 % 0.25 mm 28 W/m2
13:55 6 °C 5.3 °C 997.5 hPa SW 17.7 km/h 25.7 km/h 95 % 0.25 mm 58 W/m2
13:56 6 °C 5.3 °C 997.2 hPa SW 17.7 km/h 25.7 km/h 95 % 0 mm 58 W/m2
14:01 6.1 °C 5.3 °C 996.8 hPa SW 16.1 km/h 25.7 km/h 95 % 0 mm 69 W/m2
14:06 6.1 °C 5.2 °C 996.8 hPa SW 16.1 km/h 25.7 km/h 94 % 0 mm 58 W/m2
14:08 6.1 °C 5.2 °C 996.8 hPa SW 12.9 km/h 17.7 km/h 94 % 0 mm 63 W/m2
14:13 6.2 °C 5.3 °C 996.8 hPa SW 14.5 km/h 19.3 km/h 94 % 0 mm 62 W/m2
14:15 6.3 °C 5.4 °C 996.8 hPa SW 14.5 km/h 24.1 km/h 94 % 0 mm 51 W/m2
14:16 6.3 °C 5.4 °C 996.8 hPa SW 14.5 km/h 24.1 km/h 94 % 0 mm 62 W/m2
14:21 6.4 °C 5.5 °C 996.8 hPa SW 14.5 km/h 22.5 km/h 94 % 0 mm 63 W/m2
14:26 6.6 °C 5.7 °C 996.5 hPa WSW 14.5 km/h 22.5 km/h 94 % 0 mm 51 W/m2
14:32 6.8 °C 5.9 °C 996.5 hPa WSW 11.3 km/h 17.7 km/h 94 % 0 mm 49 W/m2
14:33 6.8 °C 5.9 °C 996.5 hPa SW 12.9 km/h 19.3 km/h 94 % 0 mm 53 W/m2
14:34 6.8 °C 5.9 °C 996.5 hPa WSW 12.9 km/h 19.3 km/h 94 % 0 mm 63 W/m2
14:39 6.9 °C 5.8 °C 996.5 hPa WSW 8 km/h 14.5 km/h 93 % 0 mm 44 W/m2
14:40 6.9 °C 5.8 °C 996.5 hPa WSW 8 km/h 14.5 km/h 93 % 0 mm 44 W/m2
14:44 7 °C 5.9 °C 996.5 hPa WSW 9.7 km/h 16.1 km/h 93 % 0 mm 30 W/m2
14:46 7 °C 5.9 °C 996.5 hPa WSW 11.3 km/h 17.7 km/h 93 % 0 mm 26 W/m2
14:51 7.1 °C 5.9 °C 996.5 hPa WSW 9.7 km/h 12.9 km/h 92 % 0 mm 18 W/m2
14:54 7.1 °C 5.9 °C 996.5 hPa WSW 12.9 km/h 19.3 km/h 92 % 0 mm 16 W/m2
14:55 7.1 °C 5.9 °C 996.5 hPa WSW 12.9 km/h 17.7 km/h 92 % 0 mm 16 W/m2
14:59 7.1 °C 5.9 °C 996.5 hPa West 12.9 km/h 17.7 km/h 92 % 0 mm 14 W/m2
15:04 7.3 °C 6.1 °C 996.5 hPa West 12.9 km/h 19.3 km/h 92 % 0 mm 12 W/m2
15:07 7.4 °C 6.2 °C 996.5 hPa West 14.5 km/h 22.5 km/h 92 % 0 mm 12 W/m2
15:09 7.4 °C 6.2 °C 996.5 hPa West 16.1 km/h 22.5 km/h 92 % 0 mm 12 W/m2
15:14 7.6 °C 6.4 °C 996.5 hPa WSW 16.1 km/h 29 km/h 92 % 0 mm 12 W/m2
15:16 7.7 °C 6.3 °C 996.5 hPa West 17.7 km/h 29 km/h 91 % 0 mm 12 W/m2
15:19 7.8 °C 6.4 °C 996.8 hPa West 17.7 km/h 25.7 km/h 91 % 0 mm 18 W/m2
15:24 7.9 °C 6.3 °C 996.8 hPa West 14.5 km/h 22.5 km/h 90 % 0 mm 19 W/m2
15:25 7.9 °C 6.3 °C 996.8 hPa West 12.9 km/h 20.9 km/h 90 % 0 mm 18 W/m2
15:29 7.9 °C 6.3 °C 996.8 hPa WSW 16.1 km/h 22.5 km/h 90 % 0 mm 14 W/m2
15:31 8 °C 6.4 °C 996.8 hPa WSW 16.1 km/h 22.5 km/h 90 % 0 mm 12 W/m2
15:34 8 °C 6.4 °C 996.8 hPa West 16.1 km/h 24.1 km/h 90 % 0 mm 11 W/m2
15:38 8.1 °C 6.4 °C 996.5 hPa WSW 17.7 km/h 25.7 km/h 89 % 0 mm 7 W/m2
15:43 8.2 °C 6.5 °C 996.2 hPa West 14.5 km/h 22.5 km/h 89 % 0 mm 5 W/m2
15:44 8.2 °C 6.5 °C 996.2 hPa West 14.5 km/h 22.5 km/h 89 % 0 mm 5 W/m2
15:49 8.2 °C 6.5 °C 996.2 hPa WSW 14.5 km/h 24.1 km/h 89 % 0 mm 0 W/m2
15:54 8.3 °C 6.6 °C 996.2 hPa WSW 16.1 km/h 30.6 km/h 89 % 0 mm 0 W/m2
15:56 8.3 °C 6.6 °C 996.2 hPa WSW 17.7 km/h 32.2 km/h 89 % 0 mm 0 W/m2
16:01 8.3 °C 6.6 °C 996.2 hPa WSW 12.9 km/h 19.3 km/h 89 % 0 mm 0 W/m2
16:05 8.4 °C 6.5 °C 995.8 hPa WSW 17.7 km/h 35.4 km/h 88 % 0 mm 0 W/m2
16:10 8.4 °C 6.5 °C 995.8 hPa WSW 16.1 km/h 30.6 km/h 88 % 0 mm 0 W/m2
16:12 8.4 °C 6.5 °C 995.8 hPa WSW 14.5 km/h 20.9 km/h 88 % 0 mm 0 W/m2
16:13 8.4 °C 6.5 °C 995.8 hPa West 17.7 km/h 33.8 km/h 88 % 0 mm 0 W/m2
16:18 8.6 °C 6.7 °C 995.5 hPa WSW 19.3 km/h 29 km/h 88 % 0 mm 0 W/m2
16:23 8.6 °C 6.7 °C 995.5 hPa WSW 20.9 km/h 38.6 km/h 88 % 0 mm 0 W/m2
16:24 8.7 °C 6.7 °C 995.5 hPa WSW 22.5 km/h 38.6 km/h 87 % 0 mm 0 W/m2
16:29 8.8 °C 6.8 °C 995.5 hPa WSW 22.5 km/h 33.8 km/h 87 % 0 mm 0 W/m2
16:33 8.9 °C 6.7 °C 995.5 hPa West 29 km/h 46.7 km/h 86 % 0 mm 0 W/m2
16:35 8.9 °C 6.5 °C 995.1 hPa WSW 29 km/h 43.5 km/h 85 % 0 mm 0 W/m2
16:40 8.9 °C 6.3 °C 995.5 hPa WSW 29 km/h 41.8 km/h 84 % 0 mm 0 W/m2
16:41 8.9 °C 6.3 °C 995.1 hPa West 27.4 km/h 41.8 km/h 84 % 0 mm 0 W/m2
16:46 8.9 °C 6.5 °C 995.1 hPa WSW 29 km/h 43.5 km/h 85 % 0 mm 0 W/m2
16:47 8.9 °C 6.5 °C 995.1 hPa WSW 27.4 km/h 43.5 km/h 85 % 0 mm 0 W/m2
16:52 8.9 °C 6.5 °C 994.8 hPa WSW 24.1 km/h 35.4 km/h 85 % 0 mm 0 W/m2
16:53 8.8 °C 6.4 °C 994.8 hPa WSW 24.1 km/h 35.4 km/h 85 % 0 mm 0 W/m2
16:54 8.8 °C 6.4 °C 994.8 hPa WSW 27.4 km/h 37 km/h 85 % 0 mm 0 W/m2
16:59 8.8 °C 6.4 °C 994.8 hPa WSW 27.4 km/h 40.2 km/h 85 % 0 mm 0 W/m2
17:03 8.7 °C 6.3 °C 994.5 hPa WSW 24.1 km/h 35.4 km/h 85 % 0 mm 0 W/m2
17:08 8.7 °C 6.2 °C 994.5 hPa WSW 24.1 km/h 35.4 km/h 84 % 0 mm 0 W/m2
17:10 8.7 °C 6.2 °C 994.1 hPa WSW 22.5 km/h 37 km/h 84 % 0 mm 0 W/m2
17:30 8.7 °C 6 °C 993.8 hPa WSW 14.5 km/h 19.3 km/h 83 % 0 mm 0 W/m2
17:32 8.7 °C 6 °C 993.8 hPa WSW 20.9 km/h 41.8 km/h 83 % 0 mm 0 W/m2
17:37 8.6 °C 5.9 °C 993.8 hPa WSW 20.9 km/h 33.8 km/h 83 % 0 mm 0 W/m2
17:38 8.6 °C 5.9 °C 993.8 hPa WSW 22.5 km/h 33.8 km/h 83 % 0 mm 0 W/m2
17:43 8.6 °C 5.9 °C 993.8 hPa WSW 25.7 km/h 37 km/h 83 % 0 mm 0 W/m2
17:44 8.6 °C 5.9 °C 993.8 hPa WSW 27.4 km/h 38.6 km/h 83 % 0 mm 0 W/m2
17:46 8.6 °C 5.7 °C 994.1 hPa WSW 29 km/h 43.5 km/h 82 % 0 mm 0 W/m2
17:50 8.6 °C 5.7 °C 993.8 hPa WSW 20.9 km/h 30.6 km/h 82 % 0 mm 0 W/m2
17:55 8.6 °C 5.7 °C 993.8 hPa WSW 24.1 km/h 37 km/h 82 % 0 mm 0 W/m2
17:58 8.5 °C 5.8 °C 993.8 hPa WSW 17.7 km/h 25.7 km/h 83 % 0 mm 0 W/m2
18:03 8.4 °C 5.7 °C 993.5 hPa WSW 17.7 km/h 24.1 km/h 83 % 0 mm 0 W/m2
18:08 8.4 °C 5.8 °C 993.5 hPa WSW 20.9 km/h 33.8 km/h 84 % 0 mm 0 W/m2
18:09 8.4 °C 5.8 °C 993.5 hPa WSW 19.3 km/h 33.8 km/h 84 % 0 mm 0 W/m2
18:14 8.3 °C 5.8 °C 993.1 hPa WSW 17.7 km/h 30.6 km/h 84 % 0 mm 0 W/m2
18:20 8.3 °C 5.8 °C 993.1 hPa WSW 20.9 km/h 30.6 km/h 84 % 0 mm 0 W/m2
18:24 8.3 °C 5.8 °C 992.8 hPa WSW 14.5 km/h 22.5 km/h 84 % 0 mm 0 W/m2
18:26 8.3 °C 5.8 °C 992.8 hPa WSW 16.1 km/h 25.7 km/h 84 % 0 mm 0 W/m2
18:31 8.2 °C 5.8 °C 992.4 hPa SW 17.7 km/h 25.7 km/h 85 % 0 mm 0 W/m2
18:36 8.2 °C 5.8 °C 992.1 hPa SW 17.7 km/h 29 km/h 85 % 0 mm 0 W/m2
18:41 8.2 °C 6 °C 992.1 hPa SW 16.1 km/h 24.1 km/h 86 % 0 mm 0 W/m2
18:44 8.2 °C 6 °C 991.8 hPa WSW 17.7 km/h 29 km/h 86 % 0 mm 0 W/m2
18:46 8.2 °C 6 °C 991.8 hPa SW 16.1 km/h 29 km/h 86 % 0.25 mm 0 W/m2
18:51 8.1 °C 5.9 °C 991.8 hPa SW 14.5 km/h 20.9 km/h 86 % 0.25 mm 0 W/m2
18:56 8.1 °C 5.9 °C 991.4 hPa SW 14.5 km/h 20.9 km/h 86 % 0.25 mm 0 W/m2
18:58 8.1 °C 5.9 °C 991.4 hPa SW 14.5 km/h 22.5 km/h 86 % 0.25 mm 0 W/m2
19:03 8 °C 5.9 °C 991.1 hPa SW 16.1 km/h 22.5 km/h 87 % 0.25 mm 0 W/m2
19:07 7.9 °C 5.9 °C 991.1 hPa SW 14.5 km/h 19.3 km/h 87 % 0.25 mm 0 W/m2
19:08 7.9 °C 5.9 °C 990.7 hPa SSW 14.5 km/h 20.9 km/h 87 % 0.25 mm 0 W/m2
19:13 7.9 °C 6.1 °C 990.7 hPa South 16.1 km/h 33.8 km/h 88 % 0.25 mm 0 W/m2
19:14 7.9 °C 6.1 °C 990.7 hPa SSW 19.3 km/h 33.8 km/h 88 % 0.25 mm 0 W/m2
19:20 7.9 °C 6.1 °C 990.7 hPa South 16.1 km/h 29 km/h 88 % 0.25 mm 0 W/m2
19:25 7.9 °C 6.2 °C 990.4 hPa South 11.3 km/h 19.3 km/h 89 % 0.25 mm 0 W/m2
19:28 7.9 °C 6.2 °C 990.1 hPa South 12.9 km/h 20.9 km/h 89 % 0.25 mm 0 W/m2
19:30 7.9 °C 6.2 °C 989.7 hPa SSE 16.1 km/h 24.1 km/h 89 % 0.25 mm 0 W/m2
19:31 7.9 °C 6.2 °C 989.7 hPa SSE 16.1 km/h 24.1 km/h 89 % 0.25 mm 0 W/m2
19:36 7.9 °C 6.2 °C 989.4 hPa SSE 16.1 km/h 24.1 km/h 89 % 0.25 mm 0 W/m2
19:37 7.9 °C 6.3 °C 989.4 hPa SSE 16.1 km/h 22.5 km/h 90 % 0.25 mm 0 W/m2
19:42 7.8 °C 6.3 °C 989.1 hPa SSE 11.3 km/h 16.1 km/h 90 % 0.25 mm 0 W/m2
19:44 7.8 °C 6.3 °C 989.1 hPa SSE 9.7 km/h 12.9 km/h 90 % 0.25 mm 0 W/m2
19:49 7.7 °C 6.2 °C 988.4 hPa SE 8 km/h 12.9 km/h 90 % 0 mm 0 W/m2
19:50 7.7 °C 6.2 °C 988.4 hPa SE 8 km/h 12.9 km/h 90 % 0 mm 0 W/m2
19:53 7.7 °C 6.2 °C 988 hPa ESE 9.7 km/h 14.5 km/h 90 % 0 mm 0 W/m2
19:58 7.7 °C 6.3 °C 987.7 hPa ESE 11.3 km/h 16.1 km/h 91 % 0 mm 0 W/m2
20:00 7.6 °C 6.2 °C 987.7 hPa SE 11.3 km/h 16.1 km/h 91 % 0 mm 0 W/m2
20:05 7.6 °C 6.2 °C 987.4 hPa SE 12.9 km/h 19.3 km/h 91 % 0 mm 0 W/m2
20:09 7.6 °C 6.4 °C 987 hPa SE 16.1 km/h 22.5 km/h 92 % 0.25 mm 0 W/m2
20:14 7.5 °C 6.3 °C 986.7 hPa SE 16.1 km/h 22.5 km/h 92 % 0.25 mm 0 W/m2
20:19 7.4 °C 6.2 °C 986.7 hPa SE 14.5 km/h 20.9 km/h 92 % 0.25 mm 0 W/m2
20:24 7.4 °C 6.3 °C 986.3 hPa SSE 16.1 km/h 29 km/h 93 % 0.25 mm 0 W/m2
20:25 7.4 °C 6.3 °C 986.3 hPa SSE 16.1 km/h 29 km/h 93 % 0.25 mm 0 W/m2
20:30 7.4 °C 6.3 °C 986 hPa SSE 14.5 km/h 20.9 km/h 93 % 0.25 mm 0 W/m2
20:31 7.4 °C 6.3 °C 986 hPa SSE 16.1 km/h 20.9 km/h 93 % 0.25 mm 0 W/m2
20:36 7.4 °C 6.5 °C 985.3 hPa South 16.1 km/h 29 km/h 94 % 0.25 mm 0 W/m2
20:37 7.4 °C 6.5 °C 985.3 hPa South 16.1 km/h 29 km/h 94 % 0.25 mm 0 W/m2
20:39 7.4 °C 6.5 °C 985.3 hPa SSE 17.7 km/h 35.4 km/h 94 % 0.51 mm 0 W/m2
20:42 7.4 °C 6.5 °C 985 hPa SSE 14.5 km/h 24.1 km/h 94 % 0.51 mm 0 W/m2
20:47 7.4 °C 6.5 °C 984.6 hPa South 17.7 km/h 25.7 km/h 94 % 0.76 mm 0 W/m2
20:49 7.4 °C 6.5 °C 984.6 hPa South 19.3 km/h 29 km/h 94 % 0.76 mm 0 W/m2
20:50 7.4 °C 6.5 °C 984.6 hPa South 17.7 km/h 29 km/h 94 % 0.76 mm 0 W/m2
20:52 7.4 °C 6.5 °C 984.3 hPa South 16.1 km/h 25.7 km/h 94 % 0.76 mm 0 W/m2
20:56 7.5 °C 6.6 °C 984.3 hPa South 17.7 km/h 33.8 km/h 94 % 0.76 mm 0 W/m2
21:01 7.5 °C 6.6 °C 984 hPa South 17.7 km/h 32.2 km/h 94 % 0.76 mm 0 W/m2
21:05 7.6 °C 6.7 °C 983.3 hPa South 17.7 km/h 32.2 km/h 94 % 0.76 mm 0 W/m2
21:10 7.7 °C 6.8 °C 983 hPa South 16.1 km/h 30.6 km/h 94 % 0.51 mm 0 W/m2
21:12 7.8 °C 6.9 °C 983 hPa SSW 25.7 km/h 40.2 km/h 94 % 0.51 mm 0 W/m2
21:15 7.9 °C 7 °C 983 hPa SSW 22.5 km/h 43.5 km/h 94 % 0.51 mm 0 W/m2
21:19 8 °C 7.1 °C 982.6 hPa SSW 22.5 km/h 40.2 km/h 94 % 0.51 mm 0 W/m2
21:24 8.2 °C 7.1 °C 982.3 hPa SSW 20.9 km/h 35.4 km/h 93 % 0.51 mm 0 W/m2
21:29 8.3 °C 7.2 °C 981.9 hPa SSW 25.7 km/h 41.8 km/h 93 % 0.51 mm 0 W/m2
21:34 8.5 °C 7.3 °C 981.6 hPa SSW 20.9 km/h 37 km/h 92 % 0.51 mm 0 W/m2
21:36 8.6 °C 7.4 °C 981.6 hPa SSW 25.7 km/h 45.1 km/h 92 % 0.51 mm 0 W/m2
21:41 8.7 °C 7.5 °C 981.6 hPa SW 22.5 km/h 32.2 km/h 92 % 0.25 mm 0 W/m2
21:46 8.9 °C 7.7 °C 981.9 hPa SSW 29 km/h 40.2 km/h 92 % 0.51 mm 0 W/m2
21:48 8.9 °C 7.7 °C 981.6 hPa SW 24.1 km/h 40.2 km/h 92 % 0.51 mm 0 W/m2
21:49 8.9 °C 7.7 °C 981.9 hPa SW 24.1 km/h 40.2 km/h 92 % 0.51 mm 0 W/m2
21:54 9 °C 7.9 °C 981.9 hPa SSW 25.7 km/h 38.6 km/h 93 % 0.76 mm 0 W/m2
21:59 9 °C 7.9 °C 981.9 hPa SW 25.7 km/h 38.6 km/h 93 % 1.27 mm 0 W/m2
22:00 9.1 °C 8 °C 981.9 hPa SW 25.7 km/h 38.6 km/h 93 % 1.27 mm 0 W/m2
22:05 9.1 °C 8 °C 981.9 hPa WSW 25.7 km/h 43.5 km/h 93 % 1.27 mm 0 W/m2
22:07 9.2 °C 8.1 °C 981.9 hPa West 25.7 km/h 43.5 km/h 93 % 1.27 mm 0 W/m2
22:08 9.2 °C 8.1 °C 981.9 hPa WSW 25.7 km/h 43.5 km/h 93 % 1.27 mm 0 W/m2
22:13 9.4 °C 8.2 °C 981.6 hPa WSW 25.7 km/h 51.5 km/h 92 % 1.27 mm 0 W/m2
22:18 9.5 °C 7.9 °C 981.9 hPa West 37 km/h 53.1 km/h 90 % 1.52 mm 0 W/m2
22:21 9.7 °C 7.8 °C 981.6 hPa WSW 37 km/h 49.9 km/h 88 % 1.52 mm 0 W/m2
22:24 9.7 °C 7.7 °C 981.6 hPa West 30.6 km/h 49.9 km/h 87 % 1.52 mm 0 W/m2
22:27 9.7 °C 7.4 °C 981.6 hPa West 29 km/h 49.9 km/h 86 % 1.52 mm 0 W/m2
22:29 9.7 °C 7.4 °C 981.6 hPa West 33.8 km/h 49.9 km/h 86 % 1.52 mm 0 W/m2
22:34 9.6 °C 7.4 °C 981.6 hPa West 35.4 km/h 53.1 km/h 86 % 1.52 mm 0 W/m2
22:35 9.6 °C 7.4 °C 981.6 hPa West 30.6 km/h 48.3 km/h 86 % 1.52 mm 0 W/m2
22:40 9.4 °C 7.2 °C 981.6 hPa West 35.4 km/h 62.8 km/h 86 % 1.52 mm 0 W/m2
22:41 9.4 °C 7.2 °C 981.6 hPa West 37 km/h 62.8 km/h 86 % 1.52 mm 0 W/m2
22:46 9.2 °C 6.6 °C 981.6 hPa West 33.8 km/h 53.1 km/h 84 % 1.02 mm 0 W/m2
22:48 9.2 °C 6.6 °C 981.6 hPa West 33.8 km/h 61.2 km/h 84 % 0.76 mm 0 W/m2
22:53 9 °C 6.1 °C 981.6 hPa West 29 km/h 48.3 km/h 82 % 0.51 mm 0 W/m2
22:58 8.9 °C 6 °C 981.6 hPa West 37 km/h 53.1 km/h 82 % 0.51 mm 0 W/m2
23:00 8.9 °C 5.8 °C 981.3 hPa West 33.8 km/h 53.1 km/h 81 % 0.25 mm 0 W/m2
23:03 8.9 °C 5.8 °C 981.3 hPa West 32.2 km/h 45.1 km/h 81 % 0.25 mm 0 W/m2
23:07 8.8 °C 5.6 °C 981.3 hPa West 38.6 km/h 54.7 km/h 80 % 0.25 mm 0 W/m2
23:12 8.8 °C 5.2 °C 981.3 hPa West 37 km/h 57.9 km/h 78 % 0.25 mm 0 W/m2
23:14 8.9 °C 5.3 °C 981.3 hPa West 33.8 km/h 57.9 km/h 78 % 0 mm 0 W/m2
23:18 8.8 °C 5 °C 981.6 hPa West 37 km/h 64.4 km/h 77 % 0 mm 0 W/m2
23:19 8.8 °C 5 °C 980.9 hPa West 38.6 km/h 56.3 km/h 77 % 0 mm 0 W/m2
23:23 8.7 °C 4.7 °C 981.3 hPa West 40.2 km/h 61.2 km/h 76 % 0 mm 0 W/m2
23:27 8.7 °C 4.5 °C 980.9 hPa West 38.6 km/h 59.5 km/h 75 % 0 mm 0 W/m2
23:32 8.6 °C 4.4 °C 980.9 hPa West 41.8 km/h 67.6 km/h 75 % 0 mm 0 W/m2
23:33 8.7 °C 4.5 °C 980.6 hPa West 43.5 km/h 67.6 km/h 75 % 0 mm 0 W/m2
23:38 8.7 °C 4.3 °C 980.6 hPa West 43.5 km/h 62.8 km/h 74 % 0 mm 0 W/m2
23:42 8.7 °C 4.3 °C 980.6 hPa West 41.8 km/h 59.5 km/h 74 % 0 mm 0 W/m2
23:47 8.6 °C 4.4 °C 980.9 hPa West 45.1 km/h 67.6 km/h 75 % 0 mm 0 W/m2
23:48 8.6 °C 4.4 °C 980.6 hPa West 46.7 km/h 67.6 km/h 75 % 0 mm 0 W/m2
23:51 8.5 °C 4.3 °C 980.6 hPa West 38.6 km/h 53.1 km/h 75 % 0 mm 0 W/m2
23:56 8.4 °C 4.4 °C 980.6 hPa West 35.4 km/h 49.9 km/h 76 % 0 mm 0 W/m2
23:59 8.4 °C 4.4 °C 980.6 hPa West 37 km/h 53.1 km/h 76 % 0 mm 0 W/m2
Delerius-Weather
Compliments of Weather Underground - 3 mb

Data updates at regular intervals.